sensor_id;sensor_type;location;lat;lon;timestamp;temperature;humidity
68922;DHT22;55959;51.244;5.724;2022-09-16T00:01:16;17.50;60.90
68922;DHT22;55959;51.244;5.724;2022-09-16T00:03:44;17.40;61.00
68922;DHT22;55959;51.244;5.724;2022-09-16T00:06:17;17.40;61.10
68922;DHT22;55959;51.244;5.724;2022-09-16T00:08:48;17.40;61.20
68922;DHT22;55959;51.244;5.724;2022-09-16T00:11:15;17.40;61.30
68922;DHT22;55959;51.244;5.724;2022-09-16T00:13:41;17.30;61.40
68922;DHT22;55959;51.244;5.724;2022-09-16T00:16:15;17.30;61.50
68922;DHT22;55959;51.244;5.724;2022-09-16T00:18:42;17.30;61.60
68922;DHT22;55959;51.244;5.724;2022-09-16T00:21:09;17.30;61.70
68922;DHT22;55959;51.244;5.724;2022-09-16T00:23:35;17.30;61.80
68922;DHT22;55959;51.244;5.724;2022-09-16T00:26:02;17.30;61.80
68922;DHT22;55959;51.244;5.724;2022-09-16T00:28:29;17.30;62.10
68922;DHT22;55959;51.244;5.724;2022-09-16T00:31:01;17.30;62.30
68922;DHT22;55959;51.244;5.724;2022-09-16T00:33:27;17.30;62.30
68922;DHT22;55959;51.244;5.724;2022-09-16T00:36:14;17.30;62.40
68922;DHT22;55959;51.244;5.724;2022-09-16T00:38:42;17.30;62.50
68922;DHT22;55959;51.244;5.724;2022-09-16T00:41:14;17.20;62.50
68922;DHT22;55959;51.244;5.724;2022-09-16T00:46:44;17.30;62.80
68922;DHT22;55959;51.244;5.724;2022-09-16T00:49:27;17.20;62.90
68922;DHT22;55959;51.244;5.724;2022-09-16T00:52:01;17.30;63.00
68922;DHT22;55959;51.244;5.724;2022-09-16T00:54:28;17.30;63.00
68922;DHT22;55959;51.244;5.724;2022-09-16T00:56:56;17.20;63.10
68922;DHT22;55959;51.244;5.724;2022-09-16T00:59:29;17.20;63.00
68922;DHT22;55959;51.244;5.724;2022-09-16T01:01:59;17.20;63.20
68922;DHT22;55959;51.244;5.724;2022-09-16T01:04:41;17.20;63.10
68922;DHT22;55959;51.244;5.724;2022-09-16T01:07:10;17.30;63.20
68922;DHT22;55959;51.244;5.724;2022-09-16T01:09:39;17.30;63.30
68922;DHT22;55959;51.244;5.724;2022-09-16T01:12:05;17.20;63.10
68922;DHT22;55959;51.244;5.724;2022-09-16T01:14:31;17.20;63.10
68922;DHT22;55959;51.244;5.724;2022-09-16T01:35:02;17.20;63.50
68922;DHT22;55959;51.244;5.724;2022-09-16T01:44:05;17.20;63.60
68922;DHT22;55959;51.244;5.724;2022-09-16T01:49:59;17.10;63.70
68922;DHT22;55959;51.244;5.724;2022-09-16T01:55:25;17.10;63.80
68922;DHT22;55959;51.244;5.724;2022-09-16T01:57:58;17.10;63.90
68922;DHT22;55959;51.244;5.724;2022-09-16T02:00:28;17.10;63.90
68922;DHT22;55959;51.244;5.724;2022-09-16T02:03:28;17.00;63.80
68922;DHT22;55959;51.244;5.724;2022-09-16T02:06:07;17.00;63.80
68922;DHT22;55959;51.244;5.724;2022-09-16T02:08:43;17.00;63.80
68922;DHT22;55959;51.244;5.724;2022-09-16T02:11:13;17.00;63.90
68922;DHT22;55959;51.244;5.724;2022-09-16T02:13:48;16.90;63.80
68922;DHT22;55959;51.244;5.724;2022-09-16T02:16:44;16.90;63.80
68922;DHT22;55959;51.244;5.724;2022-09-16T02:19:27;16.90;63.80
68922;DHT22;55959;51.244;5.724;2022-09-16T02:22:09;16.80;63.70
68922;DHT22;55959;51.244;5.724;2022-09-16T02:24:37;16.80;63.70
68922;DHT22;55959;51.244;5.724;2022-09-16T02:27:09;16.80;63.70
68922;DHT22;55959;51.244;5.724;2022-09-16T02:29:45;16.80;63.70
68922;DHT22;55959;51.244;5.724;2022-09-16T02:32:15;16.70;63.60
68922;DHT22;55959;51.244;5.724;2022-09-16T02:34:46;16.70;63.50
68922;DHT22;55959;51.244;5.724;2022-09-16T02:37:22;16.70;63.50
68922;DHT22;55959;51.244;5.724;2022-09-16T02:39:53;16.60;63.50
68922;DHT22;55959;51.244;5.724;2022-09-16T02:42:22;16.60;63.50
68922;DHT22;55959;51.244;5.724;2022-09-16T02:44:48;16.60;63.50
68922;DHT22;55959;51.244;5.724;2022-09-16T02:50:20;16.60;63.70
68922;DHT22;55959;51.244;5.724;2022-09-16T02:52:57;16.50;63.70
68922;DHT22;55959;51.244;5.724;2022-09-16T02:58:16;16.50;63.80
68922;DHT22;55959;51.244;5.724;2022-09-16T03:00:48;16.40;63.70
68922;DHT22;55959;51.244;5.724;2022-09-16T03:03:16;16.40;63.80
68922;DHT22;55959;51.244;5.724;2022-09-16T03:08:33;16.40;64.00
68922;DHT22;55959;51.244;5.724;2022-09-16T03:17:20;16.40;64.10
68922;DHT22;55959;51.244;5.724;2022-09-16T03:26:46;16.30;64.60
68922;DHT22;55959;51.244;5.724;2022-09-16T03:29:20;16.30;64.60
68922;DHT22;55959;51.244;5.724;2022-09-16T03:37:16;16.30;64.80
68922;DHT22;55959;51.244;5.724;2022-09-16T03:39:52;16.30;64.90
68922;DHT22;55959;51.244;5.724;2022-09-16T03:42:21;16.30;64.90
68922;DHT22;55959;51.244;5.724;2022-09-16T03:44:47;16.30;64.90
68922;DHT22;55959;51.244;5.724;2022-09-16T03:47:13;16.30;65.00
68922;DHT22;55959;51.244;5.724;2022-09-16T03:49:40;16.30;65.00
68922;DHT22;55959;51.244;5.724;2022-09-16T03:52:05;16.30;65.00
68922;DHT22;55959;51.244;5.724;2022-09-16T03:54:33;16.30;64.90
68922;DHT22;55959;51.244;5.724;2022-09-16T03:56:59;16.30;65.00
68922;DHT22;55959;51.244;5.724;2022-09-16T03:59:26;16.30;64.90
68922;DHT22;55959;51.244;5.724;2022-09-16T04:01:52;16.30;64.90
68922;DHT22;55959;51.244;5.724;2022-09-16T04:04:18;16.30;64.90
68922;DHT22;55959;51.244;5.724;2022-09-16T04:06:44;16.30;64.90
68922;DHT22;55959;51.244;5.724;2022-09-16T04:09:10;16.30;64.90
68922;DHT22;55959;51.244;5.724;2022-09-16T04:11:37;16.30;64.90
68922;DHT22;55959;51.244;5.724;2022-09-16T04:14:05;16.30;65.00
68922;DHT22;55959;51.244;5.724;2022-09-16T04:16:32;16.30;65.00
68922;DHT22;55959;51.244;5.724;2022-09-16T04:18:58;16.30;65.00
68922;DHT22;55959;51.244;5.724;2022-09-16T04:21:24;16.30;65.00
68922;DHT22;55959;51.244;5.724;2022-09-16T04:23:50;16.30;64.90
68922;DHT22;55959;51.244;5.724;2022-09-16T04:26:19;16.30;65.00
68922;DHT22;55959;51.244;5.724;2022-09-16T04:28:45;16.30;64.90
68922;DHT22;55959;51.244;5.724;2022-09-16T04:31:13;16.30;64.90
68922;DHT22;55959;51.244;5.724;2022-09-16T04:33:40;16.30;65.10
68922;DHT22;55959;51.244;5.724;2022-09-16T04:36:15;16.20;64.90
68922;DHT22;55959;51.244;5.724;2022-09-16T04:38:44;16.30;64.90
68922;DHT22;55959;51.244;5.724;2022-09-16T04:41:28;16.30;64.90
68922;DHT22;55959;51.244;5.724;2022-09-16T04:43:56;16.30;64.90
68922;DHT22;55959;51.244;5.724;2022-09-16T04:46:24;16.20;64.80
68922;DHT22;55959;51.244;5.724;2022-09-16T04:48:52;16.20;64.90
68922;DHT22;55959;51.244;5.724;2022-09-16T04:51:20;16.20;64.90
68922;DHT22;55959;51.244;5.724;2022-09-16T04:53:53;16.20;64.90
68922;DHT22;55959;51.244;5.724;2022-09-16T04:56:22;16.20;64.90
68922;DHT22;55959;51.244;5.724;2022-09-16T04:58:54;16.20;64.90
68922;DHT22;55959;51.244;5.724;2022-09-16T05:01:22;16.20;64.80
68922;DHT22;55959;51.244;5.724;2022-09-16T05:03:51;16.20;64.80
68922;DHT22;55959;51.244;5.724;2022-09-16T05:06:21;16.20;64.60
68922;DHT22;55959;51.244;5.724;2022-09-16T05:08:50;16.20;64.70
68922;DHT22;55959;51.244;5.724;2022-09-16T05:11:19;16.20;64.70
68922;DHT22;55959;51.244;5.724;2022-09-16T05:13:53;16.10;64.70
68922;DHT22;55959;51.244;5.724;2022-09-16T05:16:21;16.10;64.70
68922;DHT22;55959;51.244;5.724;2022-09-16T05:18:49;16.10;64.90
68922;DHT22;55959;51.244;5.724;2022-09-16T05:21:20;16.10;65.80
68922;DHT22;55959;51.244;5.724;2022-09-16T05:23:47;16.10;65.00
68922;DHT22;55959;51.244;5.724;2022-09-16T05:26:15;16.10;65.00
68922;DHT22;55959;51.244;5.724;2022-09-16T05:28:44;16.10;64.90
68922;DHT22;55959;51.244;5.724;2022-09-16T05:31:21;16.10;64.90
68922;DHT22;55959;51.244;5.724;2022-09-16T05:33:59;16.10;65.00
68922;DHT22;55959;51.244;5.724;2022-09-16T05:36:28;16.10;65.10
68922;DHT22;55959;51.244;5.724;2022-09-16T05:38:55;16.10;65.10
68922;DHT22;55959;51.244;5.724;2022-09-16T05:41:21;16.10;65.10
68922;DHT22;55959;51.244;5.724;2022-09-16T05:43:47;16.10;65.30
68922;DHT22;55959;51.244;5.724;2022-09-16T05:46:19;16.10;65.30
68922;DHT22;55959;51.244;5.724;2022-09-16T05:48:46;16.10;65.40
68922;DHT22;55959;51.244;5.724;2022-09-16T05:51:15;16.10;65.40
68922;DHT22;55959;51.244;5.724;2022-09-16T05:53:42;16.10;65.40
68922;DHT22;55959;51.244;5.724;2022-09-16T05:56:12;16.10;65.40
68922;DHT22;55959;51.244;5.724;2022-09-16T05:58:39;16.10;65.50
68922;DHT22;55959;51.244;5.724;2022-09-16T06:03:34;16.10;65.70
68922;DHT22;55959;51.244;5.724;2022-09-16T06:06:02;16.10;65.70
68922;DHT22;55959;51.244;5.724;2022-09-16T06:08:30;16.10;65.70
68922;DHT22;55959;51.244;5.724;2022-09-16T06:11:00;16.10;65.70
68922;DHT22;55959;51.244;5.724;2022-09-16T06:13:26;16.10;65.70
68922;DHT22;55959;51.244;5.724;2022-09-16T06:15:53;16.10;65.80
68922;DHT22;55959;51.244;5.724;2022-09-16T06:18:20;16.10;65.90
68922;DHT22;55959;51.244;5.724;2022-09-16T06:20:47;16.20;65.80
68922;DHT22;55959;51.244;5.724;2022-09-16T06:23:13;16.10;65.70
68922;DHT22;55959;51.244;5.724;2022-09-16T06:25:39;16.20;66.00
68922;DHT22;55959;51.244;5.724;2022-09-16T06:28:05;16.20;66.10
68922;DHT22;55959;51.244;5.724;2022-09-16T06:30:31;16.20;66.10
68922;DHT22;55959;51.244;5.724;2022-09-16T06:32:57;16.20;66.10
68922;DHT22;55959;51.244;5.724;2022-09-16T06:35:22;16.20;66.10
68922;DHT22;55959;51.244;5.724;2022-09-16T06:37:48;16.20;66.00
68922;DHT22;55959;51.244;5.724;2022-09-16T06:40:14;16.20;66.00
68922;DHT22;55959;51.244;5.724;2022-09-16T06:42:40;16.20;66.10
68922;DHT22;55959;51.244;5.724;2022-09-16T06:45:06;16.30;66.20
68922;DHT22;55959;51.244;5.724;2022-09-16T06:47:32;16.30;66.20
68922;DHT22;55959;51.244;5.724;2022-09-16T06:50:00;16.30;66.30
68922;DHT22;55959;51.244;5.724;2022-09-16T06:52:27;16.30;66.30
68922;DHT22;55959;51.244;5.724;2022-09-16T06:54:53;16.30;66.20
68922;DHT22;55959;51.244;5.724;2022-09-16T06:57:19;16.30;66.10
68922;DHT22;55959;51.244;5.724;2022-09-16T06:59:50;16.30;66.00
68922;DHT22;55959;51.244;5.724;2022-09-16T07:02:18;16.40;66.00
68922;DHT22;55959;51.244;5.724;2022-09-16T07:04:44;16.40;65.90
68922;DHT22;55959;51.244;5.724;2022-09-16T07:07:11;16.40;66.10
68922;DHT22;55959;51.244;5.724;2022-09-16T07:09:38;16.40;66.00
68922;DHT22;55959;51.244;5.724;2022-09-16T07:12:04;16.40;66.10
68922;DHT22;55959;51.244;5.724;2022-09-16T07:14:30;16.40;66.00
68922;DHT22;55959;51.244;5.724;2022-09-16T07:17:00;16.40;66.10
68922;DHT22;55959;51.244;5.724;2022-09-16T07:19:26;16.40;66.10
68922;DHT22;55959;51.244;5.724;2022-09-16T07:21:52;16.40;66.00
68922;DHT22;55959;51.244;5.724;2022-09-16T07:24:18;16.40;65.90
68922;DHT22;55959;51.244;5.724;2022-09-16T07:26:44;16.40;65.90
68922;DHT22;55959;51.244;5.724;2022-09-16T07:29:15;16.50;66.10
68922;DHT22;55959;51.244;5.724;2022-09-16T07:31:43;16.50;66.20
68922;DHT22;55959;51.244;5.724;2022-09-16T07:34:10;16.50;66.20
68922;DHT22;55959;51.244;5.724;2022-09-16T07:36:42;16.50;66.20
68922;DHT22;55959;51.244;5.724;2022-09-16T07:39:11;16.60;66.30
68922;DHT22;55959;51.244;5.724;2022-09-16T07:41:40;16.60;66.30
68922;DHT22;55959;51.244;5.724;2022-09-16T07:44:14;16.60;66.30
68922;DHT22;55959;51.244;5.724;2022-09-16T07:46:42;16.60;66.30
68922;DHT22;55959;51.244;5.724;2022-09-16T07:49:12;16.60;66.00
68922;DHT22;55959;51.244;5.724;2022-09-16T07:51:39;16.60;65.90
68922;DHT22;55959;51.244;5.724;2022-09-16T07:54:07;16.70;66.00
68922;DHT22;55959;51.244;5.724;2022-09-16T07:56:36;16.70;65.90
68922;DHT22;55959;51.244;5.724;2022-09-16T07:59:05;16.70;65.90
68922;DHT22;55959;51.244;5.724;2022-09-16T08:01:32;16.80;65.90
68922;DHT22;55959;51.244;5.724;2022-09-16T08:03:59;16.70;65.50
68922;DHT22;55959;51.244;5.724;2022-09-16T08:06:27;16.80;65.50
68922;DHT22;55959;51.244;5.724;2022-09-16T08:08:57;16.80;65.50
68922;DHT22;55959;51.244;5.724;2022-09-16T08:11:26;16.80;65.70
68922;DHT22;55959;51.244;5.724;2022-09-16T08:13:52;16.80;65.90
68922;DHT22;55959;51.244;5.724;2022-09-16T08:16:20;16.90;66.00
68922;DHT22;55959;51.244;5.724;2022-09-16T08:18:50;16.90;65.90
68922;DHT22;55959;51.244;5.724;2022-09-16T08:21:20;16.90;65.80
68922;DHT22;55959;51.244;5.724;2022-09-16T08:23:48;17.00;65.50
68922;DHT22;55959;51.244;5.724;2022-09-16T08:26:15;17.00;64.90
68922;DHT22;55959;51.244;5.724;2022-09-16T08:28:42;17.00;65.00
68922;DHT22;55959;51.244;5.724;2022-09-16T08:31:09;17.10;65.10
68922;DHT22;55959;51.244;5.724;2022-09-16T08:33:38;17.10;65.10
68922;DHT22;55959;51.244;5.724;2022-09-16T08:36:06;17.10;65.10
68922;DHT22;55959;51.244;5.724;2022-09-16T08:38:39;17.20;65.20
68922;DHT22;55959;51.244;5.724;2022-09-16T08:41:49;17.20;65.30
68922;DHT22;55959;51.244;5.724;2022-09-16T08:47:21;17.20;65.70
68922;DHT22;55959;51.244;5.724;2022-09-16T08:49:59;17.20;65.80
68922;DHT22;55959;51.244;5.724;2022-09-16T08:52:35;17.30;65.70
68922;DHT22;55959;51.244;5.724;2022-09-16T08:57:55;17.30;65.50
68922;DHT22;55959;51.244;5.724;2022-09-16T09:00:28;17.40;65.50
68922;DHT22;55959;51.244;5.724;2022-09-16T09:03:30;17.40;65.70
68922;DHT22;55959;51.244;5.724;2022-09-16T09:06:02;17.40;65.80
68922;DHT22;55959;51.244;5.724;2022-09-16T09:11:55;17.40;65.50
68922;DHT22;55959;51.244;5.724;2022-09-16T09:14:58;17.40;65.10
68922;DHT22;55959;51.244;5.724;2022-09-16T09:18:01;17.40;65.50
68922;DHT22;55959;51.244;5.724;2022-09-16T09:26:50;17.50;65.10
68922;DHT22;55959;51.244;5.724;2022-09-16T09:30:08;17.50;65.20
68922;DHT22;55959;51.244;5.724;2022-09-16T09:39:02;17.70;64.90
68922;DHT22;55959;51.244;5.724;2022-09-16T09:41:54;17.80;65.00
68922;DHT22;55959;51.244;5.724;2022-09-16T09:47:24;17.90;63.00
68922;DHT22;55959;51.244;5.724;2022-09-16T09:50:08;17.90;61.80
68922;DHT22;55959;51.244;5.724;2022-09-16T09:55:41;18.00;61.30
68922;DHT22;55959;51.244;5.724;2022-09-16T10:00:55;18.10;60.50
68922;DHT22;55959;51.244;5.724;2022-09-16T10:03:23;18.20;60.60
68922;DHT22;55959;51.244;5.724;2022-09-16T10:05:50;18.30;60.30
68922;DHT22;55959;51.244;5.724;2022-09-16T10:08:42;18.30;59.70
68922;DHT22;55959;51.244;5.724;2022-09-16T10:11:21;18.40;59.20
68922;DHT22;55959;51.244;5.724;2022-09-16T10:13:54;18.40;59.00
68922;DHT22;55959;51.244;5.724;2022-09-16T10:16:28;18.50;59.30
68922;DHT22;55959;51.244;5.724;2022-09-16T10:19:24;18.50;59.40
68922;DHT22;55959;51.244;5.724;2022-09-16T10:21:53;18.50;59.20
68922;DHT22;55959;51.244;5.724;2022-09-16T10:24:39;18.60;59.00
68922;DHT22;55959;51.244;5.724;2022-09-16T10:30:12;18.60;57.30
68922;DHT22;55959;51.244;5.724;2022-09-16T10:35:36;18.70;57.20
68922;DHT22;55959;51.244;5.724;2022-09-16T10:38:05;18.60;57.10
68922;DHT22;55959;51.244;5.724;2022-09-16T10:41:20;18.70;58.00
68922;DHT22;55959;51.244;5.724;2022-09-16T10:46:22;18.70;57.90
68922;DHT22;55959;51.244;5.724;2022-09-16T10:48:49;18.80;58.10
68922;DHT22;55959;51.244;5.724;2022-09-16T10:51:30;18.80;58.00
68922;DHT22;55959;51.244;5.724;2022-09-16T10:54:00;18.90;56.00
68922;DHT22;55959;51.244;5.724;2022-09-16T10:56:30;18.90;55.80
68922;DHT22;55959;51.244;5.724;2022-09-16T10:59:15;18.90;56.20
68922;DHT22;55959;51.244;5.724;2022-09-16T11:01:43;19.00;56.10
68922;DHT22;55959;51.244;5.724;2022-09-16T11:04:40;19.00;55.80
68922;DHT22;55959;51.244;5.724;2022-09-16T11:13:02;18.90;56.50
68922;DHT22;55959;51.244;5.724;2022-09-16T11:30:10;18.60;58.80
68922;DHT22;55959;51.244;5.724;2022-09-16T11:33:05;18.50;59.00
68922;DHT22;55959;51.244;5.724;2022-09-16T11:38:37;18.40;59.20
68922;DHT22;55959;51.244;5.724;2022-09-16T11:41:15;18.30;59.50
68922;DHT22;55959;51.244;5.724;2022-09-16T11:44:01;18.20;59.50
68922;DHT22;55959;51.244;5.724;2022-09-16T11:55:54;18.00;60.60
68922;DHT22;55959;51.244;5.724;2022-09-16T11:58:46;17.90;60.80
68922;DHT22;55959;51.244;5.724;2022-09-16T12:03:48;17.90;61.50
68922;DHT22;55959;51.244;5.724;2022-09-16T12:06:26;17.80;61.90
68922;DHT22;55959;51.244;5.724;2022-09-16T12:09:03;17.80;62.30
68922;DHT22;55959;51.244;5.724;2022-09-16T12:11:47;17.80;62.80
68922;DHT22;55959;51.244;5.724;2022-09-16T12:14:30;17.80;63.20
68922;DHT22;55959;51.244;5.724;2022-09-16T12:17:05;17.80;63.60
68922;DHT22;55959;51.244;5.724;2022-09-16T12:25:25;17.90;64.30
68922;DHT22;55959;51.244;5.724;2022-09-16T12:30:46;18.00;64.10
68922;DHT22;55959;51.244;5.724;2022-09-16T12:33:23;18.00;64.30
68922;DHT22;55959;51.244;5.724;2022-09-16T12:38:40;18.10;65.70
68922;DHT22;55959;51.244;5.724;2022-09-16T12:54:01;18.40;64.30
68922;DHT22;55959;51.244;5.724;2022-09-16T12:59:25;18.60;63.80
68922;DHT22;55959;51.244;5.724;2022-09-16T13:02:09;18.60;63.60
68922;DHT22;55959;51.244;5.724;2022-09-16T13:04:41;18.60;63.70
68922;DHT22;55959;51.244;5.724;2022-09-16T13:07:26;18.70;63.10
68922;DHT22;55959;51.244;5.724;2022-09-16T13:10:17;18.70;62.90
68922;DHT22;55959;51.244;5.724;2022-09-16T13:12:53;18.80;61.50
68922;DHT22;55959;51.244;5.724;2022-09-16T13:15:30;18.80;60.40
68922;DHT22;55959;51.244;5.724;2022-09-16T13:20:47;18.80;59.30
68922;DHT22;55959;51.244;5.724;2022-09-16T13:23:26;18.70;59.10
68922;DHT22;55959;51.244;5.724;2022-09-16T13:26:04;18.70;59.10
68922;DHT22;55959;51.244;5.724;2022-09-16T13:28:37;18.70;58.80
68922;DHT22;55959;51.244;5.724;2022-09-16T13:38:47;18.60;58.80
68922;DHT22;55959;51.244;5.724;2022-09-16T13:43:53;18.70;59.20
68922;DHT22;55959;51.244;5.724;2022-09-16T13:46:32;18.60;59.40
68922;DHT22;55959;51.244;5.724;2022-09-16T13:51:30;18.60;59.70
68922;DHT22;55959;51.244;5.724;2022-09-16T13:53:58;18.60;59.60
68922;DHT22;55959;51.244;5.724;2022-09-16T13:56:58;18.60;59.80
68922;DHT22;55959;51.244;5.724;2022-09-16T14:02:24;18.40;59.80
68922;DHT22;55959;51.244;5.724;2022-09-16T14:14:10;18.10;60.60
68922;DHT22;55959;51.244;5.724;2022-09-16T14:16:42;18.00;60.70
68922;DHT22;55959;51.244;5.724;2022-09-16T14:19:25;18.00;60.90
68922;DHT22;55959;51.244;5.724;2022-09-16T14:22:15;17.90;62.30
68922;DHT22;55959;51.244;5.724;2022-09-16T14:24:43;17.90;61.60
68922;DHT22;55959;51.244;5.724;2022-09-16T14:30:19;17.80;62.20
68922;DHT22;55959;51.244;5.724;2022-09-16T14:32:46;17.80;62.30
68922;DHT22;55959;51.244;5.724;2022-09-16T14:35:21;17.80;62.40
68922;DHT22;55959;51.244;5.724;2022-09-16T14:38:02;17.80;62.50
68922;DHT22;55959;51.244;5.724;2022-09-16T14:40:29;17.80;62.40
68922;DHT22;55959;51.244;5.724;2022-09-16T14:43:04;17.70;62.20
68922;DHT22;55959;51.244;5.724;2022-09-16T14:45:31;17.70;62.50
68922;DHT22;55959;51.244;5.724;2022-09-16T14:48:01;17.70;63.10
68922;DHT22;55959;51.244;5.724;2022-09-16T14:50:36;17.70;63.50
68922;DHT22;55959;51.244;5.724;2022-09-16T14:53:05;17.70;63.90
68922;DHT22;55959;51.244;5.724;2022-09-16T14:55:34;17.70;64.10
68922;DHT22;55959;51.244;5.724;2022-09-16T14:58:04;17.80;64.40
68922;DHT22;55959;51.244;5.724;2022-09-16T15:05:53;17.90;64.90
68922;DHT22;55959;51.244;5.724;2022-09-16T15:08:24;17.90;64.70
68922;DHT22;55959;51.244;5.724;2022-09-16T15:10:57;18.00;64.70
68922;DHT22;55959;51.244;5.724;2022-09-16T15:13:33;18.00;64.70
68922;DHT22;55959;51.244;5.724;2022-09-16T15:18:34;18.10;64.80
68922;DHT22;55959;51.244;5.724;2022-09-16T15:21:21;18.10;64.70
68922;DHT22;55959;51.244;5.724;2022-09-16T15:23:59;18.10;64.80
68922;DHT22;55959;51.244;5.724;2022-09-16T15:29:29;18.20;64.50
68922;DHT22;55959;51.244;5.724;2022-09-16T15:32:17;18.30;64.30
68922;DHT22;55959;51.244;5.724;2022-09-16T15:34:46;18.30;63.30
68922;DHT22;55959;51.244;5.724;2022-09-16T15:37:33;18.30;62.70
68922;DHT22;55959;51.244;5.724;2022-09-16T15:40:09;18.40;62.60
68922;DHT22;55959;51.244;5.724;2022-09-16T15:42:44;18.40;62.40
68922;DHT22;55959;51.244;5.724;2022-09-16T15:45:16;18.40;62.10
68922;DHT22;55959;51.244;5.724;2022-09-16T15:48:03;18.40;61.80
68922;DHT22;55959;51.244;5.724;2022-09-16T15:50:40;18.40;61.80
68922;DHT22;55959;51.244;5.724;2022-09-16T15:56:01;18.50;61.50
68922;DHT22;55959;51.244;5.724;2022-09-16T15:58:49;18.50;61.50
68922;DHT22;55959;51.244;5.724;2022-09-16T16:01:45;18.50;61.40
68922;DHT22;55959;51.244;5.724;2022-09-16T16:04:30;18.60;61.60
68922;DHT22;55959;51.244;5.724;2022-09-16T16:06:59;18.60;61.40
68922;DHT22;55959;51.244;5.724;2022-09-16T16:12:01;18.60;60.40
68922;DHT22;55959;51.244;5.724;2022-09-16T16:14:30;18.60;60.00
68922;DHT22;55959;51.244;5.724;2022-09-16T16:17:03;18.70;60.10
68922;DHT22;55959;51.244;5.724;2022-09-16T16:19:29;18.70;59.80
68922;DHT22;55959;51.244;5.724;2022-09-16T16:21:55;18.70;59.80
68922;DHT22;55959;51.244;5.724;2022-09-16T16:24:22;18.70;59.70
68922;DHT22;55959;51.244;5.724;2022-09-16T16:26:49;18.70;59.10
68922;DHT22;55959;51.244;5.724;2022-09-16T16:29:15;18.70;59.10
68922;DHT22;55959;51.244;5.724;2022-09-16T16:34:25;18.70;58.70
68922;DHT22;55959;51.244;5.724;2022-09-16T16:36:51;18.60;58.50
68922;DHT22;55959;51.244;5.724;2022-09-16T16:39:17;18.60;58.10
68922;DHT22;55959;51.244;5.724;2022-09-16T16:41:42;18.60;58.00
68922;DHT22;55959;51.244;5.724;2022-09-16T16:44:08;18.60;58.10
68922;DHT22;55959;51.244;5.724;2022-09-16T16:46:34;18.50;58.00
68922;DHT22;55959;51.244;5.724;2022-09-16T16:48:59;18.50;58.10
68922;DHT22;55959;51.244;5.724;2022-09-16T16:51:25;18.50;58.40
68922;DHT22;55959;51.244;5.724;2022-09-16T16:53:51;18.50;58.50
68922;DHT22;55959;51.244;5.724;2022-09-16T16:56:17;18.50;58.30
68922;DHT22;55959;51.244;5.724;2022-09-16T16:58:43;18.50;58.30
68922;DHT22;55959;51.244;5.724;2022-09-16T17:03:40;18.40;57.70
68922;DHT22;55959;51.244;5.724;2022-09-16T17:06:07;18.40;57.60
68922;DHT22;55959;51.244;5.724;2022-09-16T17:08:34;18.40;57.50
68922;DHT22;55959;51.244;5.724;2022-09-16T17:11:14;18.40;57.30
68922;DHT22;55959;51.244;5.724;2022-09-16T17:13:44;18.30;57.10
68922;DHT22;55959;51.244;5.724;2022-09-16T17:16:14;18.30;57.20
68922;DHT22;55959;51.244;5.724;2022-09-16T17:18:42;18.20;57.10
68922;DHT22;55959;51.244;5.724;2022-09-16T17:21:16;18.20;57.60
68922;DHT22;55959;51.244;5.724;2022-09-16T17:23:43;18.10;57.00
68922;DHT22;55959;51.244;5.724;2022-09-16T17:26:10;18.10;56.80
68922;DHT22;55959;51.244;5.724;2022-09-16T17:28:37;18.10;56.80
68922;DHT22;55959;51.244;5.724;2022-09-16T17:31:10;18.00;56.60
68922;DHT22;55959;51.244;5.724;2022-09-16T17:33:39;18.00;56.60
68922;DHT22;55959;51.244;5.724;2022-09-16T17:36:07;17.90;56.50
68922;DHT22;55959;51.244;5.724;2022-09-16T17:38:34;17.90;56.50
68922;DHT22;55959;51.244;5.724;2022-09-16T17:41:08;17.80;56.30
68922;DHT22;55959;51.244;5.724;2022-09-16T17:43:35;17.80;56.20
68922;DHT22;55959;51.244;5.724;2022-09-16T17:46:04;17.70;56.10
68922;DHT22;55959;51.244;5.724;2022-09-16T17:48:31;17.70;56.20
68922;DHT22;55959;51.244;5.724;2022-09-16T17:50:57;17.60;56.30
68922;DHT22;55959;51.244;5.724;2022-09-16T17:53:24;17.60;56.30
68922;DHT22;55959;51.244;5.724;2022-09-16T17:55:50;17.60;56.30
68922;DHT22;55959;51.244;5.724;2022-09-16T17:58:17;17.50;56.30
68922;DHT22;55959;51.244;5.724;2022-09-16T18:00:43;17.40;56.40
68922;DHT22;55959;51.244;5.724;2022-09-16T18:03:11;17.40;56.60
68922;DHT22;55959;51.244;5.724;2022-09-16T18:05:37;17.30;56.70
68922;DHT22;55959;51.244;5.724;2022-09-16T18:08:03;17.30;56.80
68922;DHT22;55959;51.244;5.724;2022-09-16T18:10:30;17.20;56.80
68922;DHT22;55959;51.244;5.724;2022-09-16T18:12:56;17.20;57.00
68922;DHT22;55959;51.244;5.724;2022-09-16T18:15:25;17.10;57.00
68922;DHT22;55959;51.244;5.724;2022-09-16T18:17:53;17.10;57.20
68922;DHT22;55959;51.244;5.724;2022-09-16T18:20:19;17.00;57.30
68922;DHT22;55959;51.244;5.724;2022-09-16T18:22:45;17.00;57.40
68922;DHT22;55959;51.244;5.724;2022-09-16T18:25:11;16.90;57.40
68922;DHT22;55959;51.244;5.724;2022-09-16T18:27:37;16.90;57.60
68922;DHT22;55959;51.244;5.724;2022-09-16T18:30:03;16.90;57.70
68922;DHT22;55959;51.244;5.724;2022-09-16T18:32:29;16.80;57.70
68922;DHT22;55959;51.244;5.724;2022-09-16T18:34:54;16.80;57.90
68922;DHT22;55959;51.244;5.724;2022-09-16T18:37:20;16.70;58.00
68922;DHT22;55959;51.244;5.724;2022-09-16T18:39:46;16.60;58.00
68922;DHT22;55959;51.244;5.724;2022-09-16T18:42:13;16.70;58.30
68922;DHT22;55959;51.244;5.724;2022-09-16T18:44:38;16.60;58.30
68922;DHT22;55959;51.244;5.724;2022-09-16T18:47:04;16.60;58.50
68922;DHT22;55959;51.244;5.724;2022-09-16T18:49:30;16.50;58.50
68922;DHT22;55959;51.244;5.724;2022-09-16T18:51:56;16.50;58.60
68922;DHT22;55959;51.244;5.724;2022-09-16T18:54:25;16.50;58.60
68922;DHT22;55959;51.244;5.724;2022-09-16T18:56:56;16.50;58.80
68922;DHT22;55959;51.244;5.724;2022-09-16T18:59:25;16.40;58.90
68922;DHT22;55959;51.244;5.724;2022-09-16T19:01:57;16.30;59.00
68922;DHT22;55959;51.244;5.724;2022-09-16T19:04:26;16.30;59.20
68922;DHT22;55959;51.244;5.724;2022-09-16T19:06:55;16.30;59.30
68922;DHT22;55959;51.244;5.724;2022-09-16T19:09:23;16.30;59.30
68922;DHT22;55959;51.244;5.724;2022-09-16T19:11:50;16.20;59.40
68922;DHT22;55959;51.244;5.724;2022-09-16T19:14:17;16.20;59.50
68922;DHT22;55959;51.244;5.724;2022-09-16T19:16:44;16.20;59.50
68922;DHT22;55959;51.244;5.724;2022-09-16T19:19:12;16.10;59.60
68922;DHT22;55959;51.244;5.724;2022-09-16T19:21:38;16.10;60.00
68922;DHT22;55959;51.244;5.724;2022-09-16T19:24:07;16.10;59.90
68922;DHT22;55959;51.244;5.724;2022-09-16T19:26:38;16.10;60.00
68922;DHT22;55959;51.244;5.724;2022-09-16T19:29:05;16.00;60.20
68922;DHT22;55959;51.244;5.724;2022-09-16T19:31:32;16.00;60.40
68922;DHT22;55959;51.244;5.724;2022-09-16T19:33:59;16.00;60.50